createdAt,value
2023-12-13T00:02:14.741Z,95.61
2023-12-13T00:04:41.370Z,95.75
2023-12-13T00:07:08.155Z,95.69
2023-12-13T00:09:35.184Z,95.54
2023-12-13T00:12:01.748Z,95.55
2023-12-13T00:14:28.302Z,95.33
2023-12-13T00:16:54.936Z,95.31
2023-12-13T00:19:22.248Z,95.60
2023-12-13T00:21:49.398Z,95.26
2023-12-13T00:24:15.959Z,95.25
2023-12-13T00:26:42.550Z,95.20
2023-12-13T00:29:09.901Z,95.12
2023-12-13T00:31:36.921Z,94.92
2023-12-13T00:34:04.511Z,95.12
2023-12-13T00:36:31.199Z,95.07
2023-12-13T00:38:58.374Z,94.94
2023-12-13T00:41:25.640Z,94.93
2023-12-13T00:43:52.385Z,94.54
2023-12-13T00:46:21.672Z,94.75
2023-12-13T00:48:49.041Z,94.32
2023-12-13T00:51:23.122Z,94.40
2023-12-13T00:53:50.464Z,94.39
2023-12-13T00:56:17.138Z,94.39
2023-12-13T00:58:44.404Z,94.14
2023-12-13T01:01:11.533Z,93.94
2023-12-13T01:03:38.388Z,93.79
2023-12-13T01:06:10.408Z,93.95
2023-12-13T01:08:38.419Z,93.92
2023-12-13T01:11:13.728Z,93.79
2023-12-13T01:13:40.378Z,93.74
2023-12-13T01:16:07.257Z,93.86
2023-12-13T01:18:34.107Z,94.04
2023-12-13T01:21:00.860Z,94.09
2023-12-13T01:23:28.328Z,93.99
2023-12-13T01:25:54.902Z,94.38
2023-12-13T01:28:22.022Z,94.21
2023-12-13T01:30:48.701Z,94.52
2023-12-13T01:33:15.405Z,94.61
2023-12-13T01:35:42.057Z,94.41
2023-12-13T01:38:08.705Z,94.65
2023-12-13T01:40:35.296Z,94.59
2023-12-13T01:43:01.919Z,94.70
2023-12-13T01:45:28.542Z,94.59
2023-12-13T01:47:55.500Z,94.90
2023-12-13T01:50:25.764Z,94.75
2023-12-13T01:52:53.039Z,94.85
2023-12-13T01:55:19.832Z,94.93
2023-12-13T01:57:46.922Z,94.93
2023-12-13T02:00:14.779Z,95.03
2023-12-13T02:02:41.762Z,95.35
2023-12-13T02:05:08.960Z,95.17
2023-12-13T02:07:36.114Z,95.60
2023-12-13T02:10:02.855Z,95.32
2023-12-13T02:12:29.480Z,95.37
2023-12-13T02:14:56.658Z,95.75
2023-12-13T02:17:23.783Z,95.58
2023-12-13T02:19:50.362Z,95.67
2023-12-13T02:22:16.918Z,95.78
2023-12-13T02:24:44.107Z,95.87
2023-12-13T02:27:10.760Z,95.96
2023-12-13T02:29:37.412Z,96.05
2023-12-13T02:32:04.135Z,95.98
2023-12-13T02:34:30.765Z,96.23
2023-12-13T02:36:57.424Z,96.14
2023-12-13T02:39:23.971Z,96.43
2023-12-13T02:41:50.626Z,96.54
2023-12-13T02:44:17.238Z,96.33
2023-12-13T02:46:43.878Z,96.60
2023-12-13T02:49:10.637Z,96.62
2023-12-13T02:51:37.220Z,96.58
2023-12-13T02:54:03.861Z,96.38
2023-12-13T02:56:30.408Z,96.67
2023-12-13T02:58:56.996Z,96.38
2023-12-13T03:01:23.696Z,96.13
2023-12-13T03:03:50.345Z,96.04
2023-12-13T03:06:16.958Z,95.83
2023-12-13T03:08:43.489Z,95.93
2023-12-13T03:11:11.669Z,95.85
2023-12-13T03:13:38.347Z,95.76
2023-12-13T03:16:07.326Z,95.30
2023-12-13T03:18:34.407Z,95.57
2023-12-13T03:21:00.987Z,95.42
2023-12-13T03:23:27.505Z,95.16
2023-12-13T03:25:54.143Z,95.34
2023-12-13T03:28:20.716Z,95.24
2023-12-13T03:30:47.390Z,95.10
2023-12-13T03:33:14.038Z,94.99
2023-12-13T03:35:40.648Z,94.82
2023-12-13T03:38:07.606Z,94.81
2023-12-13T03:40:34.226Z,94.76
2023-12-13T03:43:02.097Z,94.81
2023-12-13T03:45:28.772Z,94.61
2023-12-13T03:47:55.540Z,94.79
2023-12-13T03:50:22.565Z,94.64
2023-12-13T03:52:49.296Z,94.60
2023-12-13T03:55:16.102Z,94.68
2023-12-13T03:57:42.711Z,94.49
2023-12-13T04:00:09.713Z,94.72
2023-12-13T04:02:36.476Z,94.66
2023-12-13T04:05:03.138Z,94.57
2023-12-13T04:07:29.848Z,94.36
2023-12-13T04:09:56.384Z,94.45
2023-12-13T04:12:22.985Z,94.54
2023-12-13T04:14:50.025Z,94.70
2023-12-13T04:17:16.583Z,94.88
2023-12-13T04:19:43.156Z,94.90
2023-12-13T04:22:09.830Z,95.13
2023-12-13T04:24:36.401Z,95.10
2023-12-13T04:27:03.318Z,95.17
2023-12-13T04:29:29.884Z,95.20
2023-12-13T04:31:56.485Z,95.15
2023-12-13T04:34:23.101Z,95.18
2023-12-13T04:36:49.734Z,95.04
2023-12-13T04:39:16.256Z,95.35
2023-12-13T04:41:43.421Z,95.33
2023-12-13T04:44:12.849Z,95.42
2023-12-13T04:46:40.929Z,95.12
2023-12-13T04:49:07.623Z,95.32
2023-12-13T04:51:34.173Z,95.33
2023-12-13T04:54:00.797Z,95.56
2023-12-13T04:56:27.398Z,95.64
2023-12-13T04:58:54.461Z,95.51
2023-12-13T05:01:21.068Z,95.69
2023-12-13T05:03:47.692Z,95.71
2023-12-13T05:06:15.822Z,95.89
2023-12-13T05:08:42.387Z,95.82
2023-12-13T05:11:08.934Z,95.91
2023-12-13T05:13:35.652Z,96.00
2023-12-13T05:16:02.395Z,95.98
2023-12-13T05:18:28.927Z,95.80
2023-12-13T05:20:55.481Z,95.72
2023-12-13T05:23:22.220Z,95.73
2023-12-13T05:25:48.805Z,95.64
2023-12-13T05:28:15.349Z,95.81
2023-12-13T05:30:42.943Z,95.86
2023-12-13T05:33:09.872Z,95.93
2023-12-13T05:35:36.830Z,96.00
2023-12-13T05:38:03.462Z,95.71
2023-12-13T05:40:30.216Z,95.68
2023-12-13T05:42:57.078Z,95.87
2023-12-13T05:45:23.722Z,96.14
2023-12-13T05:47:50.442Z,95.77
2023-12-13T05:50:20.093Z,95.71
2023-12-13T05:52:46.804Z,95.82
2023-12-13T05:55:13.581Z,95.75
2023-12-13T05:57:40.124Z,95.89
2023-12-13T06:00:08.368Z,95.96
2023-12-13T06:02:38.114Z,96.20
2023-12-13T06:05:21.542Z,96.07
2023-12-13T06:07:48.162Z,96.46
2023-12-13T06:10:14.839Z,96.29
2023-12-13T06:12:41.413Z,96.60
2023-12-13T06:15:08.415Z,96.61
2023-12-13T06:17:35.173Z,96.68
2023-12-13T06:20:02.195Z,96.77
2023-12-13T06:22:28.950Z,96.62
2023-12-13T06:24:55.504Z,96.76
2023-12-13T06:27:22.069Z,96.71
2023-12-13T06:29:48.718Z,97.11
2023-12-13T06:32:15.271Z,97.09
2023-12-13T06:34:42.286Z,97.09
2023-12-13T06:37:09.050Z,97.07
2023-12-13T06:39:35.645Z,97.01
2023-12-13T06:42:02.198Z,97.01
2023-12-13T06:44:28.839Z,96.91
2023-12-13T06:46:55.569Z,96.96
2023-12-13T06:49:23.957Z,97.05
2023-12-13T06:51:51.945Z,97.12
2023-12-13T06:54:19.997Z,97.21
2023-12-13T06:56:46.646Z,97.23
2023-12-13T06:59:13.247Z,97.41
2023-12-13T07:01:41.418Z,97.38
2023-12-13T07:04:08.163Z,97.50
2023-12-13T07:06:34.797Z,97.50
2023-12-13T07:09:01.487Z,97.53
2023-12-13T07:11:30.075Z,97.48
2023-12-13T07:13:57.323Z,97.46
2023-12-13T07:16:24.398Z,97.65
2023-12-13T07:18:53.338Z,97.52
2023-12-13T07:21:20.396Z,97.50
2023-12-13T07:23:47.540Z,97.52
2023-12-13T07:26:15.349Z,97.55
2023-12-13T07:28:41.903Z,97.54
2023-12-13T07:31:10.234Z,97.46
2023-12-13T07:33:39.939Z,97.16
2023-12-13T07:36:07.013Z,97.31
2023-12-13T07:38:33.660Z,97.23
2023-12-13T07:41:00.392Z,97.25
2023-12-13T07:43:28.242Z,97.03
2023-12-13T07:45:55.956Z,97.11
2023-12-13T07:48:28.824Z,97.03
2023-12-13T07:50:58.134Z,96.88
2023-12-13T07:53:24.921Z,96.67
2023-12-13T07:55:51.736Z,96.64
2023-12-13T07:58:19.628Z,96.84
2023-12-13T08:00:46.741Z,96.57
2023-12-13T08:03:13.593Z,96.78
2023-12-13T08:05:40.207Z,96.84
2023-12-13T08:08:06.833Z,96.78
2023-12-13T08:10:33.525Z,96.54
2023-12-13T08:13:00.489Z,96.63
2023-12-13T08:15:27.922Z,96.48
2023-12-13T08:17:54.747Z,96.32
2023-12-13T08:20:21.455Z,96.55
2023-12-13T08:22:48.137Z,96.43
2023-12-13T08:25:14.905Z,96.09
2023-12-13T08:27:41.573Z,96.33
2023-12-13T08:30:08.873Z,96.38
2023-12-13T08:32:35.463Z,96.24
2023-12-13T08:35:02.091Z,96.36
2023-12-13T08:37:28.716Z,96.31
2023-12-13T08:39:55.270Z,96.04
2023-12-13T08:42:23.397Z,95.79
2023-12-13T08:44:51.118Z,95.64
2023-12-13T08:47:17.734Z,95.33
2023-12-13T08:49:47.420Z,95.24
2023-12-13T08:52:16.605Z,94.90
2023-12-13T08:54:43.574Z,94.74
2023-12-13T08:57:10.135Z,94.40
2023-12-13T08:59:36.747Z,94.17
2023-12-13T09:02:03.664Z,94.09
2023-12-13T09:04:30.226Z,93.99
2023-12-13T09:06:57.115Z,93.67
2023-12-13T09:09:23.704Z,93.68
2023-12-13T09:11:50.309Z,93.47
2023-12-13T09:14:16.947Z,93.65
2023-12-13T09:16:43.689Z,93.35
2023-12-13T09:19:10.307Z,93.49
2023-12-13T09:21:36.962Z,93.53
2023-12-13T09:24:03.659Z,93.69
2023-12-13T09:26:30.362Z,93.88
2023-12-13T09:28:57.835Z,93.71
2023-12-13T09:31:25.697Z,93.60
2023-12-13T09:33:53.802Z,93.40
2023-12-13T09:36:20.980Z,93.50
2023-12-13T09:38:48.018Z,92.95
2023-12-13T09:41:29.721Z,92.88
2023-12-13T09:43:56.927Z,92.45
2023-12-13T09:46:24.110Z,92.39
2023-12-13T09:48:51.528Z,92.39
2023-12-13T09:51:22.557Z,92.51
2023-12-13T09:53:51.875Z,92.48
2023-12-13T09:56:19.973Z,92.34
2023-12-13T09:58:46.567Z,92.17
2023-12-13T10:01:15.368Z,91.88
2023-12-13T10:03:42.030Z,91.22
2023-12-13T10:06:08.688Z,91.01
2023-12-13T10:08:36.332Z,90.49
2023-12-13T10:11:04.351Z,90.28
2023-12-13T10:13:31.070Z,90.14
2023-12-13T10:15:57.635Z,89.84
2023-12-13T10:18:24.292Z,89.67
2023-12-13T10:20:50.900Z,89.31
2023-12-13T10:23:17.607Z,88.79
2023-12-13T10:25:44.285Z,88.39
2023-12-13T10:28:12.952Z,88.36
2023-12-13T10:30:40.437Z,88.61
2023-12-13T10:33:07.224Z,88.50
2023-12-13T10:35:34.150Z,88.70
2023-12-13T10:38:03.462Z,89.01
2023-12-13T10:40:30.091Z,89.10
2023-12-13T10:42:57.527Z,88.88
2023-12-13T10:45:25.325Z,89.25
2023-12-13T10:47:56.269Z,89.56
2023-12-13T10:50:23.511Z,89.53
2023-12-13T10:52:51.629Z,90.02
2023-12-13T10:55:19.817Z,89.87
2023-12-13T10:57:46.451Z,90.28
2023-12-13T11:00:15.165Z,90.10
2023-12-13T11:03:01.414Z,90.30
2023-12-13T11:05:28.046Z,90.28
2023-12-13T11:07:54.708Z,90.05
2023-12-13T11:10:23.792Z,90.19
2023-12-13T11:12:54.462Z,90.17
2023-12-13T11:15:21.197Z,90.19
2023-12-13T11:17:51.018Z,90.25
2023-12-13T11:20:19.669Z,90.44
2023-12-13T11:22:51.556Z,90.41
2023-12-13T11:25:18.752Z,90.34
2023-12-13T11:27:52.599Z,90.23
2023-12-13T11:30:21.031Z,90.22
2023-12-13T11:32:48.285Z,90.08
2023-12-13T11:35:17.752Z,90.25
2023-12-13T11:37:53.334Z,90.28
2023-12-13T11:40:20.703Z,90.29
2023-12-13T11:42:53.311Z,90.39
2023-12-13T11:45:21.076Z,90.55
2023-12-13T11:47:51.385Z,90.48
2023-12-13T11:50:21.072Z,90.55
2023-12-13T11:52:48.159Z,91.02
2023-12-13T11:55:18.931Z,91.24
2023-12-13T11:57:50.993Z,91.42
2023-12-13T12:00:21.423Z,91.51
2023-12-13T12:02:48.326Z,91.27
2023-12-13T12:05:15.021Z,91.20
2023-12-13T12:07:41.762Z,91.20
2023-12-13T12:10:08.990Z,91.09
2023-12-13T12:12:37.543Z,91.16
2023-12-13T12:15:07.135Z,90.99
2023-12-13T12:17:34.235Z,91.00
2023-12-13T12:20:01.718Z,90.90
2023-12-13T12:22:29.061Z,90.82
2023-12-13T12:24:55.836Z,90.84
2023-12-13T12:27:26.183Z,90.93
2023-12-13T12:29:53.580Z,90.96
2023-12-13T12:32:20.633Z,90.96
2023-12-13T12:34:49.051Z,90.86
2023-12-13T12:37:16.401Z,90.81
2023-12-13T12:39:42.977Z,91.12
2023-12-13T12:42:09.635Z,91.02
2023-12-13T12:44:36.297Z,91.09
2023-12-13T12:47:04.778Z,91.20
2023-12-13T12:49:31.466Z,91.27
2023-12-13T12:51:58.073Z,91.41
2023-12-13T12:54:24.683Z,91.47
2023-12-13T12:56:52.204Z,91.55
2023-12-13T12:59:18.982Z,91.62
2023-12-13T13:01:46.114Z,91.44
2023-12-13T13:04:15.172Z,91.38
2023-12-13T13:06:43.022Z,91.56
2023-12-13T13:09:09.657Z,91.46
2023-12-13T13:11:36.505Z,91.18
2023-12-13T13:14:04.753Z,91.31
2023-12-13T13:16:33.616Z,91.60
2023-12-13T13:19:00.659Z,91.49
2023-12-13T13:21:27.976Z,91.49
2023-12-13T13:23:54.717Z,91.59
2023-12-13T13:26:21.663Z,91.36
2023-12-13T13:28:49.035Z,91.54
2023-12-13T13:31:16.442Z,91.38
2023-12-13T13:33:45.330Z,91.39
2023-12-13T13:36:13.615Z,91.28
2023-12-13T13:38:40.442Z,91.31
2023-12-13T13:41:08.605Z,91.29
2023-12-13T13:43:35.846Z,91.61
2023-12-13T13:46:02.621Z,91.32
2023-12-13T13:48:29.329Z,91.33
2023-12-13T13:50:55.912Z,91.26
2023-12-13T13:53:22.519Z,91.06
2023-12-13T13:55:49.215Z,90.89
2023-12-13T13:58:15.892Z,90.86
2023-12-13T14:00:42.464Z,90.62
2023-12-13T14:03:09.077Z,90.56
2023-12-13T14:05:36.660Z,90.73
2023-12-13T14:08:04.346Z,90.75
2023-12-13T14:10:31.619Z,90.59
2023-12-13T14:12:58.195Z,90.72
2023-12-13T14:15:24.885Z,90.64
2023-12-13T14:17:51.591Z,90.81
2023-12-13T14:20:18.696Z,90.55
2023-12-13T14:22:45.331Z,90.73
2023-12-13T14:25:11.920Z,90.59
2023-12-13T14:27:38.478Z,90.88
2023-12-13T14:30:05.761Z,90.88
2023-12-13T14:32:32.723Z,90.82
2023-12-13T14:34:59.553Z,90.82
2023-12-13T14:37:26.765Z,91.09
2023-12-13T14:39:53.364Z,91.08
2023-12-13T14:42:19.923Z,91.10
2023-12-13T14:44:46.508Z,91.03
2023-12-13T14:47:13.068Z,91.06
2023-12-13T14:49:39.689Z,91.18
2023-12-13T14:52:06.335Z,91.30
2023-12-13T14:54:32.932Z,91.18
2023-12-13T14:57:00.570Z,91.15
2023-12-13T14:59:27.147Z,91.11
2023-12-13T15:01:53.734Z,90.78
2023-12-13T15:04:20.283Z,90.93
2023-12-13T15:06:47.031Z,90.72
2023-12-13T15:09:13.699Z,90.79
2023-12-13T15:11:40.273Z,91.24
2023-12-13T15:14:06.950Z,91.38
2023-12-13T15:16:33.604Z,91.63
2023-12-13T15:19:01.725Z,91.93
2023-12-13T15:21:29.563Z,92.33
2023-12-13T15:23:56.192Z,92.69
2023-12-13T15:26:22.988Z,92.61
2023-12-13T15:28:49.759Z,92.67
2023-12-13T15:31:16.432Z,92.86
2023-12-13T15:33:43.224Z,92.75
2023-12-13T15:36:10.085Z,93.04
2023-12-13T15:38:38.301Z,93.08
2023-12-13T15:41:04.950Z,92.91
2023-12-13T15:43:31.588Z,92.86
2023-12-13T15:46:01.069Z,93.31
2023-12-13T15:48:27.861Z,93.08
2023-12-13T15:50:54.573Z,93.38
2023-12-13T15:53:22.315Z,93.42
2023-12-13T15:55:49.232Z,93.24
2023-12-13T15:58:15.928Z,93.59
2023-12-13T16:00:42.559Z,93.52
2023-12-13T16:03:09.214Z,93.35
2023-12-13T16:05:36.012Z,93.44
2023-12-13T16:08:02.763Z,93.60
2023-12-13T16:10:29.657Z,93.56
2023-12-13T16:12:56.348Z,93.52
2023-12-13T16:15:26.460Z,93.87
2023-12-13T16:17:53.143Z,93.89
2023-12-13T16:20:19.986Z,94.14
2023-12-13T16:22:47.601Z,94.08
2023-12-13T16:25:15.403Z,94.43
2023-12-13T16:27:42.987Z,94.53
2023-12-13T16:30:10.328Z,94.74
2023-12-13T16:32:37.178Z,94.79
2023-12-13T16:35:04.229Z,94.68
2023-12-13T16:37:34.894Z,94.75
2023-12-13T16:40:01.731Z,94.78
2023-12-13T16:42:28.791Z,94.81
2023-12-13T16:44:55.388Z,94.91
2023-12-13T16:47:21.977Z,94.90
2023-12-13T16:49:48.658Z,94.85
2023-12-13T16:52:15.805Z,95.15
2023-12-13T16:54:43.917Z,94.97
2023-12-13T16:57:12.430Z,95.21
2023-12-13T16:59:39.147Z,95.09
2023-12-13T17:02:07.753Z,95.37
2023-12-13T17:04:34.451Z,95.48
2023-12-13T17:07:01.552Z,95.25
2023-12-13T17:09:28.105Z,95.19
2023-12-13T17:11:55.236Z,95.26
2023-12-13T17:14:21.806Z,95.13
2023-12-13T17:16:48.426Z,95.10
2023-12-13T17:19:19.150Z,94.99
2023-12-13T17:21:46.425Z,95.01
2023-12-13T17:24:13.732Z,95.00
2023-12-13T17:26:40.307Z,94.96
2023-12-13T17:29:06.993Z,94.97
2023-12-13T17:31:33.729Z,95.17
2023-12-13T17:34:00.465Z,95.35
2023-12-13T17:36:27.629Z,95.39
2023-12-13T17:38:54.307Z,95.28
2023-12-13T17:41:20.942Z,95.34
2023-12-13T17:43:47.552Z,95.69
2023-12-13T17:46:14.169Z,95.66
2023-12-13T17:48:40.817Z,95.55
2023-12-13T17:51:07.484Z,95.60
2023-12-13T17:53:40.212Z,95.73
2023-12-13T17:56:08.718Z,95.97
2023-12-13T17:58:36.104Z,95.72
2023-12-13T18:01:02.822Z,95.78
2023-12-13T18:03:29.428Z,95.75
2023-12-13T18:05:56.111Z,95.78
2023-12-13T18:08:22.711Z,95.96
2023-12-13T18:10:49.283Z,95.87
2023-12-13T18:13:18.381Z,95.87
2023-12-13T18:15:47.874Z,95.96
2023-12-13T18:18:14.726Z,95.71
2023-12-13T18:20:41.341Z,95.78
2023-12-13T18:23:07.909Z,95.99
2023-12-13T18:25:34.516Z,95.98
2023-12-13T18:28:01.115Z,95.60
2023-12-13T18:30:27.722Z,95.97
2023-12-13T18:32:54.492Z,95.74
2023-12-13T18:35:21.330Z,96.13
2023-12-13T18:37:48.176Z,96.19
2023-12-13T18:40:15.099Z,95.84
2023-12-13T18:42:42.016Z,95.89
2023-12-13T18:45:10.579Z,95.93
2023-12-13T18:47:37.133Z,95.77
2023-12-13T18:50:04.147Z,95.93
2023-12-13T18:52:30.895Z,95.86
2023-12-13T18:54:57.716Z,95.70
2023-12-13T18:57:24.317Z,96.07
2023-12-13T18:59:50.923Z,95.89
2023-12-13T19:02:17.565Z,96.17
2023-12-13T19:04:44.318Z,96.05
2023-12-13T19:07:12.680Z,95.71
2023-12-13T19:09:39.369Z,96.08
2023-12-13T19:12:06.221Z,95.90
2023-12-13T19:14:32.823Z,96.11
2023-12-13T19:16:59.530Z,96.21
2023-12-13T19:19:26.306Z,96.10
2023-12-13T19:21:52.991Z,96.05
2023-12-13T19:24:19.569Z,95.80
2023-12-13T19:26:46.507Z,96.12
2023-12-13T19:29:16.397Z,95.93
2023-12-13T19:31:45.490Z,95.99
2023-12-13T19:34:20.025Z,95.89
2023-12-13T19:36:53.497Z,95.93
2023-12-13T19:39:20.063Z,96.03
2023-12-13T19:41:46.627Z,95.73
2023-12-13T19:44:13.228Z,95.78
2023-12-13T19:46:39.841Z,95.98
2023-12-13T19:49:06.415Z,96.07
2023-12-13T19:51:33.034Z,96.01
2023-12-13T19:53:59.569Z,96.02
2023-12-13T19:56:26.538Z,96.18
2023-12-13T19:58:54.135Z,95.96
2023-12-13T20:01:20.794Z,95.89
2023-12-13T20:03:48.816Z,95.75
2023-12-13T20:06:19.101Z,96.05
2023-12-13T20:08:45.662Z,95.82
2023-12-13T20:11:12.264Z,95.60
2023-12-13T20:13:49.759Z,95.71
2023-12-13T20:16:20.469Z,95.96
2023-12-13T20:18:48.302Z,95.91
2023-12-13T20:21:15.229Z,95.78
2023-12-13T20:23:42.165Z,95.79
2023-12-13T20:26:08.860Z,95.92
2023-12-13T20:28:36.352Z,95.98
2023-12-13T20:31:03.017Z,95.87
2023-12-13T20:33:29.780Z,95.70
2023-12-13T20:35:57.771Z,95.55
2023-12-13T20:38:24.838Z,95.66
2023-12-13T20:40:51.936Z,95.66
2023-12-13T20:43:20.912Z,95.48
2023-12-13T20:45:47.521Z,95.53
2023-12-13T20:48:14.121Z,95.42
2023-12-13T20:50:41.249Z,95.21
2023-12-13T20:53:08.013Z,95.44
2023-12-13T20:55:37.460Z,95.16
2023-12-13T20:58:04.207Z,95.28
2023-12-13T21:00:30.820Z,94.86
2023-12-13T21:02:57.443Z,94.88
2023-12-13T21:05:24.095Z,94.68
2023-12-13T21:07:50.736Z,94.72
2023-12-13T21:10:17.410Z,94.52
2023-12-13T21:12:44.334Z,94.52
2023-12-13T21:15:14.324Z,94.47
2023-12-13T21:17:41.420Z,94.06
2023-12-13T21:20:09.061Z,94.15
2023-12-13T21:22:35.930Z,94.30
2023-12-13T21:25:02.949Z,94.36
2023-12-13T21:27:29.551Z,94.06
2023-12-13T21:29:56.089Z,94.36
2023-12-13T21:32:22.909Z,94.28
2023-12-13T21:34:49.559Z,94.45
2023-12-13T21:37:16.206Z,94.45
2023-12-13T21:39:42.815Z,94.30
2023-12-13T21:42:09.742Z,94.53
2023-12-13T21:44:36.785Z,94.51
2023-12-13T21:47:03.828Z,94.46
2023-12-13T21:49:30.632Z,94.28
2023-12-13T21:51:57.272Z,94.43
2023-12-13T21:54:23.886Z,94.50
2023-12-13T21:56:50.459Z,94.23
2023-12-13T21:59:17.032Z,94.45
2023-12-13T22:01:43.777Z,94.36
2023-12-13T22:04:10.434Z,94.21
2023-12-13T22:06:37.122Z,94.18
2023-12-13T22:09:03.793Z,93.99
2023-12-13T22:11:30.409Z,94.12
2023-12-13T22:13:57.032Z,94.14
2023-12-13T22:16:23.677Z,94.23
2023-12-13T22:19:10.886Z,94.00
2023-12-13T22:21:38.670Z,93.98
2023-12-13T22:24:05.752Z,94.03
2023-12-13T22:26:32.244Z,94.12
2023-12-13T22:28:58.852Z,94.11
2023-12-13T22:31:25.580Z,94.14
2023-12-13T22:33:52.228Z,94.18
2023-12-13T22:36:18.899Z,93.77
2023-12-13T22:38:45.484Z,93.92
2023-12-13T22:41:12.071Z,93.87
2023-12-13T22:43:38.802Z,93.80
2023-12-13T22:46:05.486Z,93.66
2023-12-13T22:48:32.148Z,93.73
2023-12-13T22:50:58.714Z,93.54
2023-12-13T22:53:25.262Z,93.76
2023-12-13T22:55:51.849Z,93.77
2023-12-13T22:58:18.471Z,93.98
2023-12-13T23:00:45.075Z,93.63
2023-12-13T23:03:11.819Z,93.75
2023-12-13T23:05:38.562Z,93.48
2023-12-13T23:08:05.422Z,93.44
2023-12-13T23:10:32.038Z,93.22
2023-12-13T23:12:58.633Z,93.25
2023-12-13T23:15:25.233Z,93.24
2023-12-13T23:17:52.082Z,93.04
2023-12-13T23:20:18.865Z,93.19
2023-12-13T23:22:45.650Z,93.11
2023-12-13T23:25:12.226Z,93.33
2023-12-13T23:27:39.364Z,93.00
2023-12-13T23:30:07.043Z,92.84
2023-12-13T23:32:34.016Z,92.84
2023-12-13T23:35:00.895Z,92.55
2023-12-13T23:37:27.507Z,92.17
2023-12-13T23:39:54.249Z,91.85
2023-12-13T23:42:20.807Z,91.90
2023-12-13T23:44:47.448Z,91.77
2023-12-13T23:47:14.082Z,91.71
2023-12-13T23:49:40.637Z,91.62
2023-12-13T23:52:07.220Z,91.56
2023-12-13T23:54:36.458Z,91.54
2023-12-13T23:57:02.997Z,91.47
2023-12-13T23:59:29.579Z,91.27
